createdAt,value
2023-03-15T00:02:22.993Z,9.87
2023-03-15T00:05:25.343Z,9.85
2023-03-15T00:08:27.690Z,9.86
2023-03-15T00:11:33.705Z,9.92
2023-03-15T00:14:38.906Z,9.82
2023-03-15T00:17:41.797Z,9.76
2023-03-15T00:20:44.261Z,9.95
2023-03-15T00:23:46.544Z,10.01
2023-03-15T00:26:49.843Z,9.92
2023-03-15T00:29:52.215Z,9.87
2023-03-15T00:32:54.950Z,9.90
2023-03-15T00:35:57.295Z,9.95
2023-03-15T00:38:59.705Z,9.93
2023-03-15T00:42:02.087Z,9.85
2023-03-15T00:45:05.136Z,9.98
2023-03-15T00:48:07.545Z,9.83
2023-03-15T00:51:15.591Z,9.82
2023-03-15T00:54:23.936Z,9.79
2023-03-15T00:57:26.585Z,9.63
2023-03-15T01:00:28.841Z,9.63
2023-03-15T01:03:31.080Z,9.66
2023-03-15T01:06:33.407Z,9.56
2023-03-15T01:09:35.731Z,9.50
2023-03-15T01:12:41.779Z,9.53
2023-03-15T01:15:48.308Z,9.52
2023-03-15T01:18:54.252Z,9.48
2023-03-15T01:21:56.635Z,9.28
2023-03-15T01:24:58.870Z,9.30
2023-03-15T01:28:01.142Z,9.43
2023-03-15T01:31:03.875Z,9.39
2023-03-15T01:34:06.653Z,9.39
2023-03-15T01:37:10.495Z,9.28
2023-03-15T01:40:16.713Z,9.27
2023-03-15T01:43:22.406Z,9.31
2023-03-15T01:46:34.863Z,9.33
2023-03-15T01:49:51.903Z,9.28
2023-03-15T01:52:55.476Z,9.18
2023-03-15T01:55:59.643Z,9.22
2023-03-15T01:59:15.748Z,9.21
2023-03-15T02:02:22.828Z,9.20
2023-03-15T02:05:28.778Z,9.10
2023-03-15T02:08:39.716Z,9.09
2023-03-15T02:11:43.154Z,9.07
2023-03-15T02:14:46.288Z,9.18
2023-03-15T02:17:52.073Z,9.12
2023-03-15T02:21:03.577Z,9.04
2023-03-15T02:24:27.596Z,9.03
2023-03-15T02:27:34.598Z,8.98
2023-03-15T02:30:37.060Z,8.94
2023-03-15T02:33:43.962Z,8.92
2023-03-15T02:36:46.256Z,8.76
2023-03-15T02:39:48.506Z,8.76
2023-03-15T02:42:55.228Z,8.75
2023-03-15T02:46:00.686Z,8.80
2023-03-15T02:49:03.617Z,8.72
2023-03-15T02:52:08.204Z,8.63
2023-03-15T02:55:10.852Z,8.56
2023-03-15T02:58:13.112Z,8.43
2023-03-15T03:01:17.297Z,8.60
2023-03-15T03:04:19.861Z,8.61
2023-03-15T03:07:22.332Z,8.60
2023-03-15T03:10:30.232Z,8.46
2023-03-15T03:13:34.017Z,8.58
2023-03-15T03:16:38.863Z,8.47
2023-03-15T03:19:41.365Z,8.66
2023-03-15T03:22:47.088Z,8.74
2023-03-15T03:25:49.302Z,8.75
2023-03-15T03:28:51.567Z,8.83
2023-03-15T03:31:54.986Z,8.84
2023-03-15T03:34:57.668Z,8.80
2023-03-15T03:38:00.242Z,8.87
2023-03-15T03:41:10.144Z,8.82
2023-03-15T03:44:13.554Z,8.83
2023-03-15T03:47:17.745Z,8.77
2023-03-15T03:50:21.167Z,8.78
2023-03-15T03:53:23.776Z,8.58
2023-03-15T03:56:26.085Z,8.78
2023-03-15T03:59:28.321Z,8.73
2023-03-15T04:02:37.820Z,8.67
2023-03-15T04:05:42.892Z,8.67
2023-03-15T04:08:47.053Z,8.72
2023-03-15T04:12:09.909Z,8.65
2023-03-15T04:15:14.883Z,8.69
2023-03-15T04:18:19.341Z,8.62
2023-03-15T04:21:23.236Z,8.66
2023-03-15T04:24:29.981Z,8.59
2023-03-15T04:27:59.590Z,8.73
2023-03-15T04:31:37.703Z,8.75
2023-03-15T04:35:02.786Z,8.69
2023-03-15T04:38:16.120Z,8.46
2023-03-15T04:41:36.919Z,8.43
2023-03-15T04:44:57.470Z,8.26
2023-03-15T04:48:13.400Z,8.31
2023-03-15T04:51:41.768Z,8.22
2023-03-15T04:54:53.802Z,8.06
2023-03-15T04:58:09.782Z,7.95
2023-03-15T05:01:28.232Z,7.90
2023-03-15T05:04:44.294Z,7.74
2023-03-15T05:08:09.814Z,7.59
2023-03-15T05:11:37.902Z,7.45
2023-03-15T05:14:49.253Z,7.33
2023-03-15T05:18:17.603Z,7.15
2023-03-15T05:21:38.097Z,7.05
2023-03-15T05:24:53.849Z,6.97
2023-03-15T05:28:18.225Z,6.93
2023-03-15T05:31:43.338Z,6.86
2023-03-15T05:35:15.045Z,6.78
2023-03-15T05:38:37.486Z,6.65
2023-03-15T05:41:57.143Z,6.68
2023-03-15T05:45:19.485Z,6.55
2023-03-15T05:48:27.775Z,6.58
2023-03-15T05:51:40.360Z,6.62
2023-03-15T05:54:53.033Z,6.62
2023-03-15T05:58:10.476Z,6.76
2023-03-15T06:01:38.710Z,6.78
2023-03-15T06:04:49.324Z,6.78
2023-03-15T06:07:55.888Z,6.75
2023-03-15T06:10:58.880Z,6.75
2023-03-15T06:14:01.829Z,6.76
2023-03-15T06:17:22.372Z,6.84
2023-03-15T06:20:24.935Z,6.88
2023-03-15T06:23:27.669Z,6.81
2023-03-15T06:26:30.202Z,6.81
2023-03-15T06:29:38.434Z,6.93
2023-03-15T06:32:41.357Z,6.94
2023-03-15T06:35:44.156Z,6.87
2023-03-15T06:38:46.612Z,6.99
2023-03-15T06:41:48.960Z,7.06
2023-03-15T06:44:55.720Z,7.10
2023-03-15T06:47:58.101Z,7.05
2023-03-15T06:51:00.867Z,7.04
2023-03-15T06:54:03.190Z,7.00
2023-03-15T06:57:06.602Z,7.07
2023-03-15T07:00:11.431Z,7.06
2023-03-15T07:03:13.865Z,7.19
2023-03-15T07:06:16.311Z,7.29
2023-03-15T07:09:18.772Z,7.17
2023-03-15T07:12:21.197Z,7.18
2023-03-15T07:15:23.440Z,7.41
2023-03-15T07:18:25.887Z,7.40
2023-03-15T07:21:28.788Z,7.47
2023-03-15T07:24:35.143Z,7.31
2023-03-15T07:27:37.437Z,7.36
2023-03-15T07:30:39.809Z,7.36
2023-03-15T07:33:42.746Z,7.41
2023-03-15T07:36:45.260Z,7.36
2023-03-15T07:39:47.541Z,7.40
2023-03-15T07:42:49.917Z,7.40
2023-03-15T07:45:52.288Z,7.42
2023-03-15T07:48:54.560Z,7.56
2023-03-15T07:51:56.882Z,7.29
2023-03-15T07:54:59.188Z,7.27
2023-03-15T07:58:01.754Z,7.39
2023-03-15T08:01:04.190Z,7.38
2023-03-15T08:04:06.625Z,7.59
2023-03-15T08:07:10.379Z,7.61
2023-03-15T08:10:13.778Z,7.55
2023-03-15T08:13:16.205Z,7.48
2023-03-15T08:16:18.563Z,7.60
2023-03-15T08:19:22.225Z,7.59
2023-03-15T08:22:24.562Z,7.62
2023-03-15T08:25:26.842Z,7.36
2023-03-15T08:28:29.150Z,7.52
2023-03-15T08:31:32.533Z,7.52
2023-03-15T08:34:35.236Z,7.57
2023-03-15T08:37:37.510Z,7.66
2023-03-15T08:40:40.794Z,7.56
2023-03-15T08:43:43.377Z,7.51
2023-03-15T08:46:45.752Z,7.59
2023-03-15T08:49:48.065Z,7.64
2023-03-15T08:52:50.761Z,7.71
2023-03-15T08:55:52.973Z,7.70
2023-03-15T08:58:55.440Z,7.59
2023-03-15T09:01:57.748Z,7.60
2023-03-15T09:05:00.093Z,7.50
2023-03-15T09:08:02.811Z,7.46
2023-03-15T09:11:05.490Z,7.39
2023-03-15T09:14:07.693Z,7.29
2023-03-15T09:17:10.453Z,7.47
2023-03-15T09:20:19.546Z,7.56
2023-03-15T09:23:22.013Z,7.52
2023-03-15T09:26:24.871Z,7.50
2023-03-15T09:29:27.179Z,7.41
2023-03-15T09:32:29.850Z,7.53
2023-03-15T09:35:32.195Z,7.55
2023-03-15T09:38:34.578Z,7.62
2023-03-15T09:41:52.350Z,7.71
2023-03-15T09:45:06.921Z,7.74
2023-03-15T09:48:17.972Z,7.52
2023-03-15T09:51:32.761Z,7.63
2023-03-15T09:54:37.864Z,7.59
2023-03-15T09:57:43.324Z,7.59
2023-03-15T10:00:55.604Z,7.72
2023-03-15T10:03:58.268Z,7.64
2023-03-15T10:07:03.436Z,7.50
2023-03-15T10:10:18.224Z,7.50
2023-03-15T10:13:32.682Z,7.44
2023-03-15T10:16:52.045Z,7.66
2023-03-15T10:20:04.453Z,7.57
2023-03-15T10:23:13.056Z,7.69
2023-03-15T10:26:21.252Z,7.74
2023-03-15T10:29:27.001Z,7.78
2023-03-15T10:32:39.012Z,7.90
2023-03-15T10:35:42.965Z,8.05
2023-03-15T10:38:46.317Z,8.13
2023-03-15T10:41:50.679Z,8.18
2023-03-15T10:44:53.013Z,8.13
2023-03-15T10:48:00.469Z,8.14
2023-03-15T10:51:43.563Z,7.99
2023-03-15T10:54:46.423Z,8.23
2023-03-15T10:58:00.026Z,8.17
2023-03-15T11:01:07.678Z,8.33
2023-03-15T11:04:16.243Z,8.39
